Time;durP1;ratioP1;P1;durP2;ratioP2;P2;SDS_P1;SDS_P2;PMS_P1;PMS_P2;Temp;Humidity;BMP_temperature;BMP_pressure;BME280_temperature;BME280_humidity;BME280_pressure;Samples;Min_cycle;Max_cycle;Signal;HPM_P1;HPM_P2
2023/07/18 00:02:19;;;;;;;3.95;2.03;;;11.70;99.90;;;;;;7372319;32;20130;-56
2023/07/18 00:06:24;;;;;;;5.03;2.00;;;11.70;99.90;;;;;;7379263;32;20154;-56
2023/07/18 00:10:26;;;;;;;7.12;2.50;;;11.70;99.90;;;;;;7378927;32;20698;-56
2023/07/18 00:14:29;;;;;;;6.72;2.12;;;11.70;99.90;;;;;;7379233;32;20098;-55
2023/07/18 00:18:31;;;;;;;9.50;2.78;;;11.70;99.90;;;;;;7373297;32;20126;-56
2023/07/18 00:22:33;;;;;;;8.50;2.30;;;11.70;99.90;;;;;;7384956;32;20142;-55
2023/07/18 00:26:34;;;;;;;10.07;2.50;;;11.60;99.90;;;;;;7378401;32;20123;-55
2023/07/18 00:30:36;;;;;;;6.72;2.53;;;11.50;99.90;;;;;;7378504;32;20194;-56
2023/07/18 00:34:40;;;;;;;9.65;2.67;;;11.60;99.90;;;;;;7385199;32;20137;-55
2023/07/18 00:38:42;;;;;;;9.02;2.70;;;11.50;99.90;;;;;;7382006;32;20336;-57
2023/07/18 00:42:45;;;;;;;6.28;2.65;;;11.50;99.90;;;;;;7371594;32;20104;-55
2023/07/18 00:46:47;;;;;;;5.75;2.92;;;11.60;99.90;;;;;;7374746;32;20107;-55
2023/07/18 00:50:49;;;;;;;8.82;2.37;;;11.50;99.90;;;;;;7381398;32;20140;-55
2023/07/18 00:54:51;;;;;;;6.07;3.03;;;11.60;99.90;;;;;;7381043;32;20481;-55
2023/07/18 00:58:54;;;;;;;6.35;2.62;;;11.60;99.90;;;;;;7364558;32;20234;-55
2023/07/18 01:02:56;;;;;;;7.80;2.60;;;11.60;99.90;;;;;;7374955;32;20166;-57
2023/07/18 01:06:59;;;;;;;9.02;2.83;;;11.60;99.90;;;;;;7361290;32;20763;-56
2023/07/18 01:11:04;;;;;;;10.88;3.25;;;11.70;99.90;;;;;;7375605;32;20107;-56
2023/07/18 01:15:06;;;;;;;5.87;2.75;;;11.70;99.90;;;;;;7371194;32;20121;-55
2023/07/18 01:19:08;;;;;;;4.57;2.35;;;11.70;99.90;;;;;;7369642;32;20111;-55
2023/07/18 01:23:10;;;;;;;4.05;2.55;;;11.60;99.90;;;;;;7372175;32;20121;-55
2023/07/18 01:27:12;;;;;;;11.20;3.08;;;11.60;99.90;;;;;;7377262;32;20155;-55
2023/07/18 01:31:14;;;;;;;7.95;2.15;;;11.60;99.90;;;;;;7379878;32;20249;-55
2023/07/18 01:35:23;;;;;;;7.65;2.85;;;11.60;99.90;;;;;;7369885;32;20125;-54
2023/07/18 01:39:26;;;;;;;9.48;3.03;;;11.50;99.90;;;;;;7377832;32;20111;-55
2023/07/18 01:43:28;;;;;;;6.62;2.85;;;11.50;99.90;;;;;;7374811;32;20260;-55
2023/07/18 01:47:33;;;;;;;7.95;2.62;;;11.60;99.90;;;;;;7377010;32;20107;-56
2023/07/18 01:51:37;;;;;;;8.52;2.90;;;11.50;99.90;;;;;;7376731;32;20163;-56
2023/07/18 01:55:40;;;;;;;8.85;3.20;;;11.50;99.90;;;;;;7376333;32;20111;-55
2023/07/18 01:59:41;;;;;;;5.22;2.45;;;11.50;99.90;;;;;;7382524;32;20202;-56
2023/07/18 02:03:43;;;;;;;7.40;3.37;;;11.40;99.90;;;;;;7383017;32;20258;-55
2023/07/18 02:07:45;;;;;;;7.03;2.70;;;11.40;99.90;;;;;;7374356;32;20102;-56
2023/07/18 02:11:47;;;;;;;10.80;2.80;;;11.40;99.90;;;;;;7375746;32;20099;-55
2023/07/18 02:15:49;;;;;;;7.28;2.53;;;11.30;99.90;;;;;;7371348;32;20490;-55
2023/07/18 02:19:50;;;;;;;10.60;3.08;;;11.30;99.90;;;;;;7374923;32;20445;-55
2023/07/18 02:23:52;;;;;;;8.32;2.95;;;11.30;99.90;;;;;;7366371;32;20107;-55
2023/07/18 02:27:54;;;;;;;9.85;2.72;;;11.20;99.90;;;;;;7375763;32;20152;-55
2023/07/18 02:31:56;;;;;;;4.68;2.78;;;11.20;99.90;;;;;;7381579;32;20102;-56
2023/07/18 02:35:57;;;;;;;11.70;2.75;;;11.30;99.90;;;;;;7381784;32;20485;-56
2023/07/18 02:40:00;;;;;;;9.05;2.58;;;11.30;99.90;;;;;;7367813;32;20114;-55
2023/07/18 02:44:05;;;;;;;10.10;2.85;;;11.30;99.90;;;;;;7369391;32;20175;-55
2023/07/18 02:48:07;;;;;;;12.90;4.07;;;11.40;99.90;;;;;;7364282;32;20202;-56
2023/07/18 02:52:09;;;;;;;8.18;3.67;;;11.50;99.90;;;;;;7373331;32;20107;-55
2023/07/18 02:56:10;;;;;;;6.43;3.67;;;11.60;99.90;;;;;;7381155;32;20107;-55
2023/07/18 03:00:19;;;;;;;8.77;3.58;;;11.60;99.90;;;;;;7375176;32;20115;-55
2023/07/18 03:04:22;;;;;;;8.05;3.33;;;11.80;99.90;;;;;;7368489;32;20756;-56
2023/07/18 03:08:24;;;;;;;9.25;3.72;;;11.90;99.90;;;;;;7374632;32;20107;-55
2023/07/18 03:12:25;;;;;;;9.95;3.83;;;11.90;99.90;;;;;;7361928;32;20095;-55
2023/07/18 03:16:27;;;;;;;7.55;3.85;;;11.90;99.90;;;;;;7381152;32;20282;-55
2023/07/18 03:20:29;;;;;;;8.30;3.40;;;12.00;99.90;;;;;;7368493;32;20103;-55
2023/07/18 03:24:34;;;;;;;8.85;3.67;;;12.00;99.90;;;;;;7361723;32;20213;-55
2023/07/18 03:28:35;;;;;;;9.05;3.72;;;12.00;99.90;;;;;;7374702;32;20125;-55
2023/07/18 03:32:39;;;;;;;7.30;3.97;;;12.10;99.90;;;;;;7380359;32;20211;-56
2023/07/18 03:36:41;;;;;;;6.25;3.65;;;12.10;99.90;;;;;;7369493;32;20570;-55
2023/07/18 03:40:43;;;;;;;6.12;3.55;;;12.00;99.90;;;;;;7371695;32;20103;-56
2023/07/18 03:44:45;;;;;;;4.72;3.40;;;12.10;99.90;;;;;;7373208;32;20502;-56
2023/07/18 03:48:46;;;;;;;7.55;3.60;;;12.10;99.90;;;;;;7368093;32;20107;-56
2023/07/18 03:52:48;;;;;;;9.32;3.75;;;12.00;99.90;;;;;;7371893;32;20547;-55
2023/07/18 03:56:50;;;;;;;5.68;2.97;;;12.00;99.90;;;;;;7364770;32;20140;-56
2023/07/18 04:00:52;;;;;;;8.27;3.15;;;12.00;99.90;;;;;;7380529;32;20537;-55
2023/07/18 04:04:54;;;;;;;5.37;3.30;;;12.00;99.90;;;;;;7368023;32;20103;-55
2023/07/18 04:08:56;;;;;;;6.03;3.33;;;12.00;99.90;;;;;;7375199;32;20395;-56
2023/07/18 04:12:58;;;;;;;8.18;3.50;;;12.00;99.90;;;;;;7367837;32;20254;-55
2023/07/18 04:16:59;;;;;;;5.37;3.10;;;12.10;99.90;;;;;;7373434;32;20134;-55
2023/07/18 04:21:02;;;;;;;9.98;3.85;;;12.00;99.90;;;;;;7370083;32;20231;-55
2023/07/18 04:25:04;;;;;;;5.53;3.53;;;12.00;99.90;;;;;;7367402;32;20146;-55
2023/07/18 04:29:06;;;;;;;6.72;3.90;;;12.10;99.90;;;;;;7364954;32;20155;-55
2023/07/18 04:33:12;;;;;;;9.93;3.40;;;12.20;99.90;;;;;;7378191;32;20186;-56
2023/07/18 04:37:14;;;;;;;10.32;4.22;;;12.20;99.90;;;;;;7375957;32;20099;-55
2023/07/18 04:41:16;;;;;;;6.20;3.28;;;12.40;99.90;;;;;;7376433;32;20118;-56
2023/07/18 04:45:19;;;;;;;6.50;3.15;;;12.60;99.90;;;;;;7366089;32;20174;-55
2023/07/18 04:49:22;;;;;;;9.57;3.58;;;12.90;99.90;;;;;;7371347;32;20589;-57
2023/07/18 04:53:26;;;;;;;5.82;3.08;;;13.00;99.90;;;;;;7370525;32;20711;-57
2023/07/18 04:57:29;;;;;;;7.65;3.90;;;13.20;99.90;;;;;;7377235;32;20169;-57
2023/07/18 05:01:30;;;;;;;6.65;3.10;;;13.50;99.90;;;;;;7376902;32;20195;-57
2023/07/18 05:05:32;;;;;;;5.35;2.95;;;14.00;99.90;;;;;;7359901;32;20125;-57
2023/07/18 05:09:34;;;;;;;5.22;3.30;;;14.50;99.90;;;;;;7367229;32;20138;-56
2023/07/18 05:13:36;;;;;;;5.12;3.20;;;15.10;99.90;;;;;;7379437;32;20098;-57
2023/07/18 05:17:38;;;;;;;5.95;2.95;;;15.70;99.90;;;;;;7367109;32;20125;-56
2023/07/18 05:21:39;;;;;;;6.05;2.90;;;16.20;99.90;;;;;;7360720;32;20483;-57
2023/07/18 05:25:41;;;;;;;6.82;3.42;;;16.80;99.90;;;;;;7368512;32;20565;-57
2023/07/18 05:29:44;;;;;;;6.12;2.62;;;17.20;99.90;;;;;;7366518;32;20126;-56
2023/07/18 05:33:46;;;;;;;4.10;2.53;;;17.50;99.90;;;;;;7366036;32;20287;-56
2023/07/18 05:37:48;;;;;;;4.47;2.67;;;17.80;99.90;;;;;;7373469;32;20167;-57
2023/07/18 05:41:49;;;;;;;6.60;3.10;;;18.00;99.90;;;;;;7372900;32;20104;-57
2023/07/18 05:45:51;;;;;;;4.53;2.75;;;18.40;99.90;;;;;;7373554;32;20179;-56
2023/07/18 05:49:53;;;;;;;7.80;2.78;;;18.60;99.90;;;;;;7372015;32;20111;-56
2023/07/18 05:53:55;;;;;;;5.47;2.67;;;18.80;99.90;;;;;;7369878;32;20129;-56
2023/07/18 05:57:57;;;;;;;5.60;2.58;;;19.20;99.90;;;;;;7378618;32;20095;-56
2023/07/18 06:01:59;;;;;;;8.68;2.40;;;19.20;99.90;;;;;;7380571;32;20549;-56
2023/07/18 06:06:01;;;;;;;5.30;2.12;;;19.30;99.90;;;;;;7373678;32;20498;-57
2023/07/18 06:10:03;;;;;;;5.60;2.22;;;19.40;99.90;;;;;;7371034;32;20102;-56
2023/07/18 06:14:05;;;;;;;6.25;2.30;;;19.30;99.90;;;;;;7363202;32;20167;-56
2023/07/18 06:18:07;;;;;;;6.12;2.70;;;19.60;99.90;;;;;;7376933;32;20102;-57
2023/07/18 06:22:10;;;;;;;7.00;2.30;;;19.90;99.90;;;;;;7368490;32;20247;-56
2023/07/18 06:26:12;;;;;;;5.65;2.30;;;20.50;99.90;;;;;;7366050;32;20157;-56
2023/07/18 06:30:14;;;;;;;6.50;2.67;;;21.30;99.90;;;;;;7374868;32;20125;-56
2023/07/18 06:34:19;;;;;;;5.43;2.35;;;21.90;99.90;;;;;;7370171;32;20103;-56
2023/07/18 06:38:21;;;;;;;6.57;2.58;;;22.50;99.90;;;;;;7380408;32;20122;-57
2023/07/18 06:42:23;;;;;;;4.55;2.20;;;22.80;99.90;;;;;;7378966;32;20099;-56
2023/07/18 06:46:24;;;;;;;3.62;1.90;;;23.40;99.90;;;;;;7374318;32;20617;-56
2023/07/18 06:50:26;;;;;;;4.75;2.37;;;23.80;99.90;;;;;;7373670;32;20110;-57
2023/07/18 06:54:28;;;;;;;5.47;2.17;;;24.20;99.90;;;;;;7373129;32;20765;-56
2023/07/18 06:58:30;;;;;;;4.05;1.73;;;24.60;99.90;;;;;;7380979;32;20126;-57
2023/07/18 07:02:31;;;;;;;3.22;1.90;;;24.70;99.90;;;;;;7378727;32;20474;-57
2023/07/18 07:06:33;;;;;;;5.72;2.12;;;24.50;99.90;;;;;;7379813;32;20144;-57
2023/07/18 07:10:39;;;;;;;6.70;1.77;;;24.80;99.90;;;;;;7373232;32;20137;-57
2023/07/18 07:14:41;;;;;;;3.47;2.00;;;24.80;99.90;;;;;;7379899;32;20139;-57
2023/07/18 07:18:43;;;;;;;4.45;2.15;;;24.70;99.90;;;;;;7370431;32;20102;-57
2023/07/18 07:22:47;;;;;;;6.68;2.03;;;24.80;99.90;;;;;;7378891;32;20644;-57
2023/07/18 07:26:50;;;;;;;5.22;2.05;;;24.70;99.90;;;;;;7375007;32;20166;-56
2023/07/18 07:30:52;;;;;;;4.93;2.12;;;24.40;99.90;;;;;;7373850;32;20653;-56
2023/07/18 07:34:54;;;;;;;6.60;1.83;;;24.20;99.90;;;;;;7373057;32;20102;-57
2023/07/18 07:38:56;;;;;;;4.65;1.87;;;24.30;99.90;;;;;;7376240;32;20463;-58
2023/07/18 07:42:58;;;;;;;6.15;2.05;;;23.00;99.90;;;;;;7375833;32;20609;-56
2023/07/18 07:46:59;;;;;;;2.25;1.30;;;22.40;99.90;;;;;;7373924;32;20153;-56
2023/07/18 07:51:03;;;;;;;6.32;1.95;;;21.60;99.90;;;;;;7378140;32;20465;-56
2023/07/18 07:55:06;;;;;;;5.03;1.80;;;21.20;99.90;;;;;;7372670;32;20160;-56
2023/07/18 07:59:08;;;;;;;4.75;1.73;;;21.00;99.90;;;;;;7379673;32;20124;-57
2023/07/18 08:03:12;;;;;;;5.03;1.70;;;20.60;99.90;;;;;;7358465;32;20202;-56
2023/07/18 08:07:16;;;;;;;4.47;1.60;;;20.60;99.90;;;;;;7378066;32;20163;-56
2023/07/18 08:11:17;;;;;;;3.25;1.70;;;20.80;99.90;;;;;;7382039;32;20143;-57
2023/07/18 08:15:20;;;;;;;4.03;1.62;;;21.20;99.90;;;;;;7382392;32;20111;-56
2023/07/18 08:19:22;;;;;;;3.42;1.60;;;21.50;99.90;;;;;;7380904;32;20126;-58
2023/07/18 08:23:24;;;;;;;6.18;1.65;;;22.10;99.90;;;;;;7380546;32;20126;-57
2023/07/18 08:27:26;;;;;;;6.30;1.70;;;22.50;99.90;;;;;;7382661;32;20151;-57
2023/07/18 08:31:29;;;;;;;5.68;1.67;;;22.90;99.90;;;;;;7378385;32;20126;-56
2023/07/18 08:35:31;;;;;;;7.60;1.92;;;23.40;99.90;;;;;;7378455;32;20118;-56
2023/07/18 08:39:33;;;;;;;5.12;2.08;;;23.80;99.90;;;;;;7382503;32;20102;-57
2023/07/18 08:43:37;;;;;;;3.50;1.40;;;24.00;99.90;;;;;;7377325;32;20107;-57
2023/07/18 08:47:39;;;;;;;6.43;1.80;;;24.40;99.90;;;;;;7377180;32;20230;-56
2023/07/18 08:51:42;;;;;;;6.70;1.73;;;24.70;99.90;;;;;;7382310;32;20115;-57
2023/07/18 08:55:44;;;;;;;5.90;1.37;;;24.70;99.90;;;;;;7382178;32;20148;-56
2023/07/18 08:59:47;;;;;;;9.10;1.73;;;25.00;99.90;;;;;;7382762;32;20555;-57
2023/07/18 09:03:49;;;;;;;5.05;1.52;;;25.30;99.90;;;;;;7375868;32;20127;-56
2023/07/18 09:07:55;;;;;;;4.03;1.80;;;25.50;99.90;;;;;;7380496;32;20130;-56
2023/07/18 09:12:01;;;;;;;6.20;2.03;;;26.00;99.90;;;;;;7379771;32;20122;-57
2023/07/18 09:16:21;;;;;;;5.43;1.15;;;26.40;99.30;;;;;;7380925;32;20545;-57
2023/07/18 09:20:26;;;;;;;3.60;1.65;;;26.10;99.40;;;;;;7373575;32;20134;-56
2023/07/18 09:24:32;;;;;;;4.60;1.55;;;25.50;96.80;;;;;;7378895;32;20138;-57
2023/07/18 09:28:34;;;;;;;8.63;1.42;;;24.20;97.20;;;;;;7375181;32;20477;-57
2023/07/18 09:32:37;;;;;;;4.45;1.30;;;24.00;99.90;;;;;;7382336;32;20111;-56
2023/07/18 09:36:38;;;;;;;4.95;1.20;;;24.50;99.90;;;;;;7380257;32;20151;-58
2023/07/18 09:40:40;;;;;;;6.00;1.50;;;24.10;98.10;;;;;;7375724;32;20519;-57
2023/07/18 09:44:48;;;;;;;3.72;1.00;;;24.00;99.90;;;;;;7380447;32;20529;-56
2023/07/18 09:48:53;;;;;;;6.60;0.95;;;23.70;96.50;;;;;;7382171;32;20099;-56
2023/07/18 09:52:57;;;;;;;3.33;1.02;;;23.50;97.70;;;;;;7380272;32;20122;-56
2023/07/18 09:57:10;;;;;;;4.20;1.10;;;23.90;95.80;;;;;;7379586;32;20435;-56
2023/07/18 10:01:19;;;;;;;4.28;1.02;;;24.60;94.60;;;;;;7380026;32;20123;-56
2023/07/18 10:05:22;;;;;;;4.78;1.33;;;24.10;95.10;;;;;;7379032;32;20096;-57
2023/07/18 10:09:27;;;;;;;5.60;1.33;;;23.70;96.60;;;;;;7380715;32;20198;-56
2023/07/18 10:13:29;;;;;;;3.85;1.30;;;23.50;96.30;;;;;;7377038;32;20190;-57
2023/07/18 10:17:35;;;;;;;5.10;1.27;;;23.40;99.90;;;;;;7368834;32;20138;-58
2023/07/18 10:21:43;;;;;;;6.43;1.48;;;23.50;96.00;;;;;;7373653;32;20138;-56
2023/07/18 10:25:55;;;;;;;4.37;1.30;;;23.40;99.90;;;;;;7366682;32;20099;-56
2023/07/18 10:30:08;;;;;;;6.45;1.37;;;23.00;99.90;;;;;;7373744;32;20129;-57
2023/07/18 10:34:13;;;;;;;5.12;1.60;;;22.90;99.90;;;;;;7379117;32;20098;-57
2023/07/18 10:38:15;;;;;;;5.45;1.33;;;22.90;99.90;;;;;;7379527;32;20135;-56
2023/07/18 10:42:28;;;;;;;5.57;1.65;;;22.80;99.90;;;;;;7379434;32;20111;-57
2023/07/18 10:46:38;;;;;;;6.80;1.70;;;23.30;99.90;;;;;;7372624;32;20138;-56
2023/07/18 10:50:41;;;;;;;7.65;1.50;;;23.30;99.50;;;;;;7364063;32;20125;-56
2023/07/18 10:54:45;;;;;;;5.47;1.60;;;23.30;98.80;;;;;;7379066;32;20111;-56
2023/07/18 10:58:46;;;;;;;4.62;1.70;;;23.20;99.30;;;;;;7379165;32;20102;-57
2023/07/18 11:02:51;;;;;;;6.12;1.27;;;23.00;99.90;;;;;;7380159;32;20411;-56
2023/07/18 11:06:55;;;;;;;5.62;1.48;;;22.80;99.90;;;;;;7378733;32;20128;-57
2023/07/18 11:11:02;;;;;;;3.87;1.40;;;22.80;99.90;;;;;;7378413;32;20098;-58
2023/07/18 11:15:11;;;;;;;3.78;1.20;;;22.90;99.90;;;;;;7379517;32;20165;-56
2023/07/18 11:19:13;;;;;;;5.22;1.70;;;22.90;99.90;;;;;;7376921;32;20230;-57
2023/07/18 11:23:15;;;;;;;3.40;1.27;;;22.80;99.90;;;;;;7379118;32;20103;-57
2023/07/18 11:27:23;;;;;;;8.88;1.70;;;23.00;99.90;;;;;;7367021;32;20147;-58
2023/07/18 11:31:27;;;;;;;4.78;1.30;;;23.60;99.90;;;;;;7378755;32;20462;-57
2023/07/18 11:35:31;;;;;;;4.03;1.60;;;23.70;98.20;;;;;;7380344;32;20135;-57
2023/07/18 11:39:33;;;;;;;6.55;1.20;;;23.50;97.60;;;;;;7378949;32;20122;-57
2023/07/18 11:43:37;;;;;;;7.72;1.90;;;23.40;99.90;;;;;;7380009;32;20107;-57
2023/07/18 11:47:44;;;;;;;4.40;1.12;;;23.40;99.70;;;;;;7377000;32;20568;-57
2023/07/18 11:51:45;;;;;;;5.28;1.15;;;23.30;99.90;;;;;;7383588;32;20163;-57
2023/07/18 11:55:47;;;;;;;4.72;1.50;;;23.40;99.90;;;;;;7384695;32;20159;-57
2023/07/18 11:59:49;;;;;;;3.80;1.10;;;23.90;99.90;;;;;;7384668;32;20190;-57
2023/07/18 12:03:51;;;;;;;5.65;1.30;;;24.40;99.90;;;;;;7381140;32;20134;-56
2023/07/18 12:07:53;;;;;;;7.53;1.75;;;24.70;97.10;;;;;;7369686;32;20163;-56
2023/07/18 12:11:55;;;;;;;4.62;1.30;;;25.00;98.80;;;;;;7377109;32;20103;-56
2023/07/18 12:16:00;;;;;;;7.68;1.50;;;25.20;94.30;;;;;;7380788;32;20133;-57
2023/07/18 12:20:02;;;;;;;8.90;1.75;;;25.20;93.40;;;;;;7379537;32;20151;-57
2023/07/18 12:24:04;;;;;;;4.45;1.35;;;25.00;94.30;;;;;;7384553;32;20482;-56
2023/07/18 12:28:06;;;;;;;3.72;1.20;;;25.00;94.30;;;;;;7375968;32;20148;-56
2023/07/18 12:32:10;;;;;;;5.43;1.30;;;25.30;95.40;;;;;;7377294;32;20160;-58
2023/07/18 12:36:12;;;;;;;3.55;1.60;;;25.10;93.00;;;;;;7382164;32;20169;-57
2023/07/18 12:40:17;;;;;;;4.90;1.40;;;24.60;95.70;;;;;;7383333;32;20182;-57
2023/07/18 12:44:20;;;;;;;4.32;1.65;;;24.60;94.80;;;;;;7381245;32;20171;-57
2023/07/18 12:48:27;;;;;;;3.10;1.42;;;24.90;96.20;;;;;;7381589;32;20726;-57
2023/07/18 12:52:29;;;;;;;4.87;1.77;;;24.60;95.60;;;;;;7375834;32;20576;-57
2023/07/18 12:56:33;;;;;;;8.73;1.83;;;24.50;95.30;;;;;;7383535;32;20636;-57
2023/07/18 13:00:35;;;;;;;6.25;1.55;;;24.70;95.30;;;;;;7380600;32;20155;-57
2023/07/18 13:04:36;;;;;;;4.90;1.60;;;25.00;95.80;;;;;;7375571;32;20217;-57
2023/07/18 13:08:38;;;;;;;4.05;1.50;;;25.60;93.90;;;;;;7378869;32;20754;-57
2023/07/18 13:12:40;;;;;;;3.47;1.60;;;26.20;94.60;;;;;;7382004;32;20820;-58
2023/07/18 13:16:42;;;;;;;4.93;1.40;;;26.10;89.90;;;;;;7380575;32;20137;-57
2023/07/18 13:20:44;;;;;;;3.60;1.58;;;25.90;90.70;;;;;;7380766;32;20161;-56
2023/07/18 13:24:46;;;;;;;3.80;1.70;;;25.60;91.90;;;;;;7377003;32;20129;-58
2023/07/18 13:28:48;;;;;;;3.47;1.55;;;25.40;92.70;;;;;;7375261;32;20151;-57
2023/07/18 13:32:50;;;;;;;4.78;1.70;;;25.20;90.60;;;;;;7376060;32;20263;-56
2023/07/18 13:36:52;;;;;;;4.95;1.70;;;25.30;90.90;;;;;;7377627;32;20212;-57
2023/07/18 13:40:54;;;;;;;5.12;1.85;;;25.60;92.00;;;;;;7374723;32;20134;-57
2023/07/18 13:44:56;;;;;;;3.78;1.70;;;25.60;90.80;;;;;;7377847;32;20157;-56
2023/07/18 13:48:58;;;;;;;5.10;1.77;;;25.60;91.40;;;;;;7380694;32;20134;-57
2023/07/18 13:53:00;;;;;;;6.40;1.75;;;25.60;90.10;;;;;;7379556;32;20189;-58
2023/07/18 13:57:03;;;;;;;4.50;1.77;;;25.60;90.70;;;;;;7376761;32;20275;-57
2023/07/18 14:01:04;;;;;;;4.22;1.65;;;25.70;90.00;;;;;;7365203;32;20113;-57
2023/07/18 14:05:07;;;;;;;4.85;1.85;;;26.10;90.20;;;;;;7380199;32;20095;-57
2023/07/18 14:09:09;;;;;;;3.22;1.55;;;26.00;86.00;;;;;;7380519;32;20121;-57
2023/07/18 14:13:10;;;;;;;6.25;1.80;;;26.00;91.30;;;;;;7380020;32;20107;-58
2023/07/18 14:17:12;;;;;;;4.37;1.70;;;26.10;90.00;;;;;;7381603;32;20584;-58
2023/07/18 14:21:14;;;;;;;4.28;1.73;;;26.10;91.10;;;;;;7380038;32;20190;-58
2023/07/18 14:25:16;;;;;;;4.45;1.75;;;26.30;88.60;;;;;;7376821;32;20512;-58
2023/07/18 14:29:19;;;;;;;3.85;1.55;;;26.30;90.30;;;;;;7380131;32;20110;-58
2023/07/18 14:33:21;;;;;;;5.28;1.80;;;26.50;85.50;;;;;;7374851;32;20131;-58
2023/07/18 14:37:23;;;;;;;4.57;1.58;;;26.70;87.00;;;;;;7374123;32;20107;-59
2023/07/18 14:41:25;;;;;;;3.67;1.80;;;27.00;87.40;;;;;;7375902;32;20434;-57
2023/07/18 14:45:26;;;;;;;3.58;1.77;;;27.30;81.10;;;;;;7375329;32;20120;-59
2023/07/18 14:49:28;;;;;;;3.75;1.62;;;27.00;85.70;;;;;;7380088;32;20126;-57
2023/07/18 14:53:32;;;;;;;6.22;1.70;;;27.20;81.70;;;;;;7369504;32;20517;-57
2023/07/18 14:57:33;;;;;;;5.47;1.80;;;26.90;83.60;;;;;;7378299;32;20609;-57
2023/07/18 15:01:36;;;;;;;4.60;1.73;;;26.80;81.10;;;;;;7373636;32;20518;-58
2023/07/18 15:05:38;;;;;;;4.65;1.70;;;27.00;82.90;;;;;;7368300;32;20121;-57
2023/07/18 15:09:40;;;;;;;5.10;1.50;;;27.20;80.60;;;;;;7374836;32;20467;-58
2023/07/18 15:13:43;;;;;;;4.65;1.90;;;27.20;81.10;;;;;;7377377;32;20664;-58
2023/07/18 15:17:46;;;;;;;3.15;1.73;;;27.20;83.10;;;;;;7379479;32;20134;-59
2023/07/18 15:21:48;;;;;;;7.37;1.85;;;27.40;83.80;;;;;;7364762;32;20107;-57
2023/07/18 15:25:50;;;;;;;3.25;1.77;;;26.80;82.00;;;;;;7365486;32;20119;-57
2023/07/18 15:29:52;;;;;;;5.25;1.70;;;26.70;81.90;;;;;;7379284;32;20114;-57
2023/07/18 15:33:53;;;;;;;4.50;1.90;;;26.20;80.30;;;;;;7367856;32;20107;-58
2023/07/18 15:37:55;;;;;;;5.75;1.83;;;25.90;83.20;;;;;;7371900;32;20107;-58
2023/07/18 15:41:57;;;;;;;5.12;1.75;;;25.60;85.30;;;;;;7379444;32;20463;-58
2023/07/18 15:45:59;;;;;;;3.83;1.87;;;25.40;89.80;;;;;;7378318;32;20242;-58
2023/07/18 15:50:01;;;;;;;6.50;2.08;;;25.40;86.60;;;;;;7374945;32;20122;-58
2023/07/18 15:54:04;;;;;;;4.12;1.52;;;25.30;86.10;;;;;;7375886;32;20111;-57
2023/07/18 15:58:06;;;;;;;5.10;2.00;;;25.30;84.50;;;;;;7376520;32;20100;-58
2023/07/18 16:02:07;;;;;;;4.43;1.90;;;25.30;84.90;;;;;;7375462;32;20106;-58
2023/07/18 16:06:09;;;;;;;4.75;1.77;;;25.10;86.50;;;;;;7371894;32;20284;-58
2023/07/18 16:10:11;;;;;;;5.18;2.00;;;25.10;86.00;;;;;;7376550;32;20107;-58
2023/07/18 16:14:13;;;;;;;2.75;1.70;;;25.10;86.90;;;;;;7378384;32;20668;-57
2023/07/18 16:18:15;;;;;;;7.07;2.10;;;24.80;86.90;;;;;;7373424;32;20502;-57
2023/07/18 16:22:18;;;;;;;4.28;1.73;;;24.60;88.20;;;;;;7370860;32;20098;-58
2023/07/18 16:26:20;;;;;;;3.45;1.40;;;24.60;88.60;;;;;;7370087;32;20103;-57
2023/07/18 16:30:22;;;;;;;4.28;1.75;;;24.50;90.40;;;;;;7383561;32;20672;-58
2023/07/18 16:34:24;;;;;;;7.53;2.15;;;24.60;90.20;;;;;;7379770;32;20119;-57
2023/07/18 16:38:28;;;;;;;7.30;1.92;;;24.50;86.80;;;;;;7374318;32;20106;-57
2023/07/18 16:42:30;;;;;;;4.40;1.60;;;24.50;90.30;;;;;;7373061;32;20159;-57
2023/07/18 16:46:32;;;;;;;6.28;2.03;;;24.30;89.10;;;;;;7375554;32;20571;-58
2023/07/18 16:50:33;;;;;;;5.43;2.03;;;24.50;89.20;;;;;;7374376;32;20474;-57
2023/07/18 16:54:37;;;;;;;6.60;2.17;;;24.30;87.70;;;;;;7372942;32;20233;-59
2023/07/18 16:58:43;;;;;;;4.65;1.92;;;24.30;90.10;;;;;;7383280;32;20149;-58
2023/07/18 17:02:45;;;;;;;5.75;1.62;;;24.20;89.80;;;;;;7376541;32;20433;-59
2023/07/18 17:06:48;;;;;;;3.75;1.62;;;24.10;89.40;;;;;;7372678;32;20164;-57
2023/07/18 17:10:50;;;;;;;8.00;1.85;;;24.00;91.00;;;;;;7377819;32;20198;-58
2023/07/18 17:14:52;;;;;;;2.28;1.50;;;24.00;90.60;;;;;;7375870;32;20122;-58
2023/07/18 17:18:54;;;;;;;2.97;1.80;;;24.00;90.10;;;;;;7376064;32;20152;-57
2023/07/18 17:22:56;;;;;;;7.62;2.12;;;23.80;90.80;;;;;;7369204;32;20544;-57
2023/07/18 17:26:58;;;;;;;4.70;2.03;;;23.90;90.40;;;;;;7381770;32;20536;-57
2023/07/18 17:31:00;;;;;;;4.12;1.85;;;23.90;90.60;;;;;;7377380;32;20624;-58
2023/07/18 17:35:02;;;;;;;6.18;2.20;;;23.80;91.40;;;;;;7373187;32;20174;-59
2023/07/18 17:39:04;;;;;;;4.62;1.90;;;23.70;90.50;;;;;;7380237;32;20186;-57
2023/07/18 17:43:06;;;;;;;9.80;2.08;;;23.70;91.20;;;;;;7367011;32;20238;-57
2023/07/18 17:47:08;;;;;;;6.57;1.80;;;23.60;91.70;;;;;;7373521;32;20125;-58
2023/07/18 17:51:09;;;;;;;4.28;1.87;;;23.50;93.00;;;;;;7373858;32;20108;-57
2023/07/18 17:55:12;;;;;;;3.45;1.98;;;23.50;93.70;;;;;;7379803;32;20111;-58
2023/07/18 17:59:13;;;;;;;4.57;2.03;;;23.60;93.10;;;;;;7368959;32;20697;-57
2023/07/18 18:03:15;;;;;;;5.32;2.22;;;23.60;91.90;;;;;;7374917;32;20111;-57
2023/07/18 18:07:17;;;;;;;5.45;2.40;;;23.50;91.50;;;;;;7373003;32;20107;-58
2023/07/18 18:11:19;;;;;;;5.90;1.90;;;23.40;92.80;;;;;;7379952;32;20484;-58
2023/07/18 18:15:21;;;;;;;8.82;2.90;;;23.30;93.40;;;;;;7373154;32;20183;-58
2023/07/18 18:19:23;;;;;;;7.78;2.33;;;23.10;93.60;;;;;;7381645;32;20103;-57
2023/07/18 18:23:26;;;;;;;4.28;2.10;;;23.20;94.10;;;;;;7380331;32;20423;-57
2023/07/18 18:27:39;;;;;;;6.75;1.83;;;23.00;95.40;;;;;;7374611;32;20199;-57
2023/07/18 18:31:41;;;;;;;3.58;1.95;;;22.60;94.80;;;;;;7380881;32;20193;-57
2023/07/18 18:35:44;;;;;;;3.05;1.77;;;22.40;95.80;;;;;;7378043;32;20751;-57
2023/07/18 18:39:45;;;;;;;3.90;1.80;;;22.20;96.40;;;;;;7381387;32;20126;-57
2023/07/18 18:43:49;;;;;;;8.90;2.08;;;22.10;96.90;;;;;;7372069;32;20178;-58
2023/07/18 18:47:51;;;;;;;4.43;1.80;;;21.80;98.10;;;;;;7381006;32;20627;-57
2023/07/18 18:51:53;;;;;;;5.43;1.75;;;21.70;99.00;;;;;;7366176;32;20129;-58
2023/07/18 18:55:56;;;;;;;4.25;1.62;;;21.40;99.90;;;;;;7371802;32;20139;-61
2023/07/18 18:59:58;;;;;;;4.57;2.10;;;21.20;99.90;;;;;;7379199;32;20545;-57
2023/07/18 19:03:59;;;;;;;5.82;2.05;;;21.00;99.90;;;;;;7374451;32;20167;-57
2023/07/18 19:08:02;;;;;;;4.30;2.03;;;20.90;99.90;;;;;;7379833;32;20535;-57
2023/07/18 19:12:06;;;;;;;3.78;1.50;;;20.60;99.90;;;;;;7374527;32;20103;-57
2023/07/18 19:16:07;;;;;;;4.35;2.47;;;20.30;99.90;;;;;;7375408;32;20190;-57
2023/07/18 19:20:10;;;;;;;5.68;1.85;;;20.00;99.90;;;;;;7369671;32;20125;-57
2023/07/18 19:24:12;;;;;;;5.30;2.08;;;19.80;99.90;;;;;;7377475;32;20123;-57
2023/07/18 19:28:14;;;;;;;9.18;2.10;;;19.40;99.90;;;;;;7375282;32;20421;-57
2023/07/18 19:32:16;;;;;;;5.07;1.77;;;19.20;99.90;;;;;;7373189;32;20115;-57
2023/07/18 19:36:18;;;;;;;5.05;2.15;;;19.00;99.90;;;;;;7374474;32;20103;-57
2023/07/18 19:40:20;;;;;;;5.53;2.00;;;18.90;99.90;;;;;;7373676;32;20226;-57
2023/07/18 19:44:21;;;;;;;5.78;1.85;;;18.70;99.90;;;;;;7376999;32;20304;-57
2023/07/18 19:48:23;;;;;;;7.18;2.20;;;18.50;99.90;;;;;;7370323;32;20111;-57
2023/07/18 19:52:25;;;;;;;4.82;2.50;;;18.30;99.90;;;;;;7376475;32;20125;-58
2023/07/18 19:56:27;;;;;;;4.60;2.37;;;18.10;99.90;;;;;;7361625;32;20121;-56
2023/07/18 20:00:29;;;;;;;7.12;2.92;;;18.00;99.90;;;;;;7372982;32;20123;-56
2023/07/18 20:04:30;;;;;;;3.42;1.90;;;17.80;99.90;;;;;;7378091;32;20099;-56
2023/07/18 20:08:33;;;;;;;6.97;2.60;;;17.70;99.90;;;;;;7379813;32;20502;-56
2023/07/18 20:12:34;;;;;;;4.87;2.40;;;17.40;99.90;;;;;;7372968;32;20131;-56
2023/07/18 20:16:36;;;;;;;6.57;2.62;;;17.30;99.90;;;;;;7381517;32;20107;-56
2023/07/18 20:20:39;;;;;;;5.97;2.40;;;17.10;99.90;;;;;;7383953;32;20114;-57
2023/07/18 20:24:40;;;;;;;5.10;2.50;;;17.00;99.90;;;;;;7369384;32;20144;-57
2023/07/18 20:28:42;;;;;;;8.30;2.35;;;17.00;99.90;;;;;;7376659;32;20210;-56
2023/07/18 20:32:44;;;;;;;6.78;2.35;;;16.80;99.90;;;;;;7384502;32;20106;-56
2023/07/18 20:36:46;;;;;;;8.32;2.70;;;16.70;99.90;;;;;;7384179;32;20125;-56
2023/07/18 20:40:47;;;;;;;5.57;2.00;;;16.60;99.90;;;;;;7383760;32;20558;-57
2023/07/18 20:44:49;;;;;;;6.47;2.37;;;16.50;99.90;;;;;;7379534;32;20122;-56
2023/07/18 20:48:51;;;;;;;4.07;2.58;;;16.40;99.90;;;;;;7378866;32;20279;-57
2023/07/18 20:52:54;;;;;;;5.07;1.98;;;16.30;99.90;;;;;;7380068;32;20134;-56
2023/07/18 20:56:55;;;;;;;7.60;2.67;;;16.30;99.90;;;;;;7378306;32;20094;-55
2023/07/18 21:00:57;;;;;;;5.20;2.08;;;16.30;99.90;;;;;;7371131;32;20787;-56